sensor_id;sensor_type;location;lat;lon;timestamp;P1;durP1;ratioP1;P2;durP2;ratioP2
53040;SDS011;39326;42.650;23.248;2023-01-19T00:02:22;27.90;;;6.43;;
53040;SDS011;39326;42.650;23.248;2023-01-19T00:04:48;19.47;;;5.43;;
53040;SDS011;39326;42.650;23.248;2023-01-19T00:07:13;22.90;;;4.20;;
53040;SDS011;39326;42.650;23.248;2023-01-19T00:09:39;23.77;;;5.37;;
53040;SDS011;39326;42.650;23.248;2023-01-19T00:12:04;26.20;;;5.27;;
53040;SDS011;39326;42.650;23.248;2023-01-19T00:14:30;28.40;;;5.90;;
53040;SDS011;39326;42.650;23.248;2023-01-19T00:16:56;31.40;;;5.70;;
53040;SDS011;39326;42.650;23.248;2023-01-19T00:19:21;21.03;;;4.83;;
53040;SDS011;39326;42.650;23.248;2023-01-19T00:21:47;23.07;;;5.07;;
53040;SDS011;39326;42.650;23.248;2023-01-19T00:24:12;23.00;;;4.17;;
53040;SDS011;39326;42.650;23.248;2023-01-19T00:26:41;24.03;;;4.97;;
53040;SDS011;39326;42.650;23.248;2023-01-19T00:29:07;29.30;;;6.10;;
53040;SDS011;39326;42.650;23.248;2023-01-19T00:31:34;31.67;;;6.13;;
53040;SDS011;39326;42.650;23.248;2023-01-19T00:34:00;17.43;;;5.10;;
53040;SDS011;39326;42.650;23.248;2023-01-19T00:36:26;26.27;;;6.30;;
53040;SDS011;39326;42.650;23.248;2023-01-19T00:38:52;19.20;;;5.03;;
53040;SDS011;39326;42.650;23.248;2023-01-19T00:41:18;22.63;;;5.27;;
53040;SDS011;39326;42.650;23.248;2023-01-19T00:44:03;34.40;;;6.57;;
53040;SDS011;39326;42.650;23.248;2023-01-19T00:46:29;24.10;;;5.83;;
53040;SDS011;39326;42.650;23.248;2023-01-19T00:48:54;28.03;;;5.63;;
53040;SDS011;39326;42.650;23.248;2023-01-19T00:51:19;21.83;;;4.50;;
53040;SDS011;39326;42.650;23.248;2023-01-19T00:53:45;21.10;;;5.47;;
53040;SDS011;39326;42.650;23.248;2023-01-19T00:56:10;22.60;;;4.83;;
53040;SDS011;39326;42.650;23.248;2023-01-19T00:58:36;17.07;;;3.33;;
53040;SDS011;39326;42.650;23.248;2023-01-19T01:01:01;31.70;;;5.43;;
53040;SDS011;39326;42.650;23.248;2023-01-19T01:03:28;23.20;;;5.43;;
53040;SDS011;39326;42.650;23.248;2023-01-19T01:05:53;29.30;;;7.43;;
53040;SDS011;39326;42.650;23.248;2023-01-19T01:08:19;27.27;;;5.37;;
53040;SDS011;39326;42.650;23.248;2023-01-19T01:10:44;22.50;;;5.30;;
53040;SDS011;39326;42.650;23.248;2023-01-19T01:13:10;25.47;;;5.60;;
53040;SDS011;39326;42.650;23.248;2023-01-19T01:15:35;25.93;;;6.27;;
53040;SDS011;39326;42.650;23.248;2023-01-19T01:18:00;22.93;;;5.80;;
53040;SDS011;39326;42.650;23.248;2023-01-19T01:20:26;30.40;;;5.60;;
53040;SDS011;39326;42.650;23.248;2023-01-19T01:22:54;18.07;;;4.20;;
53040;SDS011;39326;42.650;23.248;2023-01-19T01:25:21;21.67;;;5.33;;
53040;SDS011;39326;42.650;23.248;2023-01-19T01:27:48;14.00;;;2.93;;
53040;SDS011;39326;42.650;23.248;2023-01-19T01:30:14;28.13;;;5.47;;
53040;SDS011;39326;42.650;23.248;2023-01-19T01:32:40;24.30;;;5.40;;
53040;SDS011;39326;42.650;23.248;2023-01-19T01:35:05;28.77;;;6.03;;
53040;SDS011;39326;42.650;23.248;2023-01-19T01:37:33;25.23;;;5.70;;
53040;SDS011;39326;42.650;23.248;2023-01-19T01:39:58;22.90;;;5.13;;
53040;SDS011;39326;42.650;23.248;2023-01-19T01:42:25;19.03;;;4.47;;
53040;SDS011;39326;42.650;23.248;2023-01-19T01:44:56;25.57;;;5.47;;
53040;SDS011;39326;42.650;23.248;2023-01-19T01:47:30;29.07;;;5.67;;
53040;SDS011;39326;42.650;23.248;2023-01-19T01:52:43;15.07;;;3.70;;
53040;SDS011;39326;42.650;23.248;2023-01-19T01:55:11;23.30;;;4.60;;
53040;SDS011;39326;42.650;23.248;2023-01-19T01:57:40;18.83;;;4.63;;
53040;SDS011;39326;42.650;23.248;2023-01-19T02:00:08;29.50;;;5.60;;
53040;SDS011;39326;42.650;23.248;2023-01-19T02:02:34;24.47;;;5.30;;
53040;SDS011;39326;42.650;23.248;2023-01-19T02:07:56;22.50;;;4.20;;
53040;SDS011;39326;42.650;23.248;2023-01-19T02:10:45;22.47;;;4.77;;
53040;SDS011;39326;42.650;23.248;2023-01-19T02:13:30;19.80;;;4.60;;
53040;SDS011;39326;42.650;23.248;2023-01-19T02:16:00;19.80;;;4.97;;
53040;SDS011;39326;42.650;23.248;2023-01-19T02:18:30;22.73;;;5.40;;
53040;SDS011;39326;42.650;23.248;2023-01-19T02:23:43;16.13;;;3.70;;
53040;SDS011;39326;42.650;23.248;2023-01-19T02:26:14;24.97;;;4.77;;
53040;SDS011;39326;42.650;23.248;2023-01-19T02:28:47;21.17;;;4.07;;
53040;SDS011;39326;42.650;23.248;2023-01-19T02:31:21;15.57;;;2.83;;
53040;SDS011;39326;42.650;23.248;2023-01-19T02:33:47;12.33;;;3.53;;
53040;SDS011;39326;42.650;23.248;2023-01-19T02:36:14;15.43;;;3.67;;
53040;SDS011;39326;42.650;23.248;2023-01-19T02:38:43;18.37;;;4.77;;
53040;SDS011;39326;42.650;23.248;2023-01-19T02:41:10;17.60;;;3.50;;
53040;SDS011;39326;42.650;23.248;2023-01-19T02:43:39;14.77;;;2.63;;
53040;SDS011;39326;42.650;23.248;2023-01-19T02:46:06;21.80;;;4.63;;
53040;SDS011;39326;42.650;23.248;2023-01-19T02:48:32;17.73;;;4.33;;
53040;SDS011;39326;42.650;23.248;2023-01-19T02:51:01;16.53;;;3.70;;
53040;SDS011;39326;42.650;23.248;2023-01-19T03:10:43;21.10;;;3.93;;
53040;SDS011;39326;42.650;23.248;2023-01-19T03:18:36;21.17;;;4.90;;
53040;SDS011;39326;42.650;23.248;2023-01-19T03:21:06;19.77;;;3.60;;
53040;SDS011;39326;42.650;23.248;2023-01-19T03:23:35;17.33;;;3.63;;
53040;SDS011;39326;42.650;23.248;2023-01-19T03:26:03;24.90;;;5.15;;
53040;SDS011;39326;42.650;23.248;2023-01-19T03:28:33;20.57;;;3.00;;
53040;SDS011;39326;42.650;23.248;2023-01-19T03:31:04;19.00;;;3.33;;
53040;SDS011;39326;42.650;23.248;2023-01-19T03:33:35;19.10;;;3.93;;
53040;SDS011;39326;42.650;23.248;2023-01-19T03:36:07;16.57;;;3.97;;
53040;SDS011;39326;42.650;23.248;2023-01-19T03:38:37;22.87;;;4.73;;
53040;SDS011;39326;42.650;23.248;2023-01-19T03:41:07;22.20;;;3.80;;
53040;SDS011;39326;42.650;23.248;2023-01-19T03:43:35;26.23;;;4.73;;
53040;SDS011;39326;42.650;23.248;2023-01-19T03:46:03;17.57;;;4.20;;
53040;SDS011;39326;42.650;23.248;2023-01-19T03:48:30;20.13;;;4.03;;
53040;SDS011;39326;42.650;23.248;2023-01-19T03:50:56;21.60;;;4.40;;
53040;SDS011;39326;42.650;23.248;2023-01-19T03:53:22;15.93;;;3.27;;
53040;SDS011;39326;42.650;23.248;2023-01-19T03:55:49;13.97;;;2.97;;
53040;SDS011;39326;42.650;23.248;2023-01-19T03:58:15;17.30;;;4.33;;
53040;SDS011;39326;42.650;23.248;2023-01-19T04:00:41;21.93;;;4.27;;
53040;SDS011;39326;42.650;23.248;2023-01-19T04:03:12;23.53;;;4.90;;
53040;SDS011;39326;42.650;23.248;2023-01-19T04:05:39;20.33;;;3.80;;
53040;SDS011;39326;42.650;23.248;2023-01-19T04:08:04;21.80;;;4.77;;
53040;SDS011;39326;42.650;23.248;2023-01-19T04:10:30;19.03;;;4.97;;
53040;SDS011;39326;42.650;23.248;2023-01-19T04:12:59;25.50;;;5.13;;
53040;SDS011;39326;42.650;23.248;2023-01-19T04:15:25;25.53;;;5.30;;
53040;SDS011;39326;42.650;23.248;2023-01-19T04:17:51;24.90;;;5.13;;
53040;SDS011;39326;42.650;23.248;2023-01-19T04:20:17;30.37;;;5.83;;
53040;SDS011;39326;42.650;23.248;2023-01-19T04:22:44;21.43;;;5.10;;
53040;SDS011;39326;42.650;23.248;2023-01-19T04:25:09;19.00;;;4.40;;
53040;SDS011;39326;42.650;23.248;2023-01-19T04:27:35;23.27;;;4.77;;
53040;SDS011;39326;42.650;23.248;2023-01-19T04:30:01;22.33;;;3.70;;
53040;SDS011;39326;42.650;23.248;2023-01-19T04:32:28;28.10;;;6.10;;
53040;SDS011;39326;42.650;23.248;2023-01-19T04:34:54;22.20;;;5.63;;
53040;SDS011;39326;42.650;23.248;2023-01-19T04:37:19;23.40;;;5.93;;
53040;SDS011;39326;42.650;23.248;2023-01-19T04:39:45;35.17;;;7.27;;
53040;SDS011;39326;42.650;23.248;2023-01-19T04:42:11;29.20;;;6.60;;
53040;SDS011;39326;42.650;23.248;2023-01-19T04:44:36;23.40;;;4.97;;
53040;SDS011;39326;42.650;23.248;2023-01-19T04:47:02;18.97;;;4.73;;
53040;SDS011;39326;42.650;23.248;2023-01-19T04:49:28;24.07;;;5.13;;
53040;SDS011;39326;42.650;23.248;2023-01-19T04:51:53;38.50;;;6.67;;
53040;SDS011;39326;42.650;23.248;2023-01-19T04:54:19;32.77;;;7.00;;
53040;SDS011;39326;42.650;23.248;2023-01-19T04:56:45;27.60;;;6.07;;
53040;SDS011;39326;42.650;23.248;2023-01-19T04:59:11;24.80;;;5.23;;
53040;SDS011;39326;42.650;23.248;2023-01-19T05:01:36;29.17;;;6.20;;
53040;SDS011;39326;42.650;23.248;2023-01-19T05:04:02;22.20;;;5.63;;
53040;SDS011;39326;42.650;23.248;2023-01-19T05:06:30;24.33;;;5.50;;
53040;SDS011;39326;42.650;23.248;2023-01-19T05:08:55;20.57;;;4.83;;
53040;SDS011;39326;42.650;23.248;2023-01-19T05:11:21;18.60;;;4.90;;
53040;SDS011;39326;42.650;23.248;2023-01-19T05:13:46;29.43;;;6.17;;
53040;SDS011;39326;42.650;23.248;2023-01-19T05:16:11;25.57;;;5.20;;
53040;SDS011;39326;42.650;23.248;2023-01-19T05:18:38;21.57;;;4.73;;
53040;SDS011;39326;42.650;23.248;2023-01-19T05:21:04;15.07;;;3.60;;
53040;SDS011;39326;42.650;23.248;2023-01-19T05:23:30;28.47;;;6.93;;
53040;SDS011;39326;42.650;23.248;2023-01-19T05:25:57;26.33;;;5.97;;
53040;SDS011;39326;42.650;23.248;2023-01-19T05:28:25;25.87;;;7.27;;
53040;SDS011;39326;42.650;23.248;2023-01-19T05:30:51;35.53;;;6.33;;
53040;SDS011;39326;42.650;23.248;2023-01-19T05:33:17;32.13;;;6.90;;
53040;SDS011;39326;42.650;23.248;2023-01-19T05:35:42;29.43;;;6.13;;
53040;SDS011;39326;42.650;23.248;2023-01-19T05:38:07;22.43;;;6.33;;
53040;SDS011;39326;42.650;23.248;2023-01-19T05:40:33;27.30;;;6.60;;
53040;SDS011;39326;42.650;23.248;2023-01-19T05:42:59;17.60;;;4.07;;
53040;SDS011;39326;42.650;23.248;2023-01-19T05:45:28;27.77;;;6.10;;
53040;SDS011;39326;42.650;23.248;2023-01-19T05:47:53;23.50;;;5.27;;
53040;SDS011;39326;42.650;23.248;2023-01-19T05:50:19;28.87;;;7.20;;
53040;SDS011;39326;42.650;23.248;2023-01-19T05:52:44;30.87;;;6.40;;
53040;SDS011;39326;42.650;23.248;2023-01-19T05:55:10;24.03;;;5.63;;
53040;SDS011;39326;42.650;23.248;2023-01-19T05:57:36;26.07;;;6.13;;
53040;SDS011;39326;42.650;23.248;2023-01-19T06:00:02;31.30;;;6.73;;
53040;SDS011;39326;42.650;23.248;2023-01-19T06:02:28;24.30;;;6.23;;
53040;SDS011;39326;42.650;23.248;2023-01-19T06:04:54;28.37;;;5.83;;
53040;SDS011;39326;42.650;23.248;2023-01-19T06:07:20;25.20;;;6.60;;
53040;SDS011;39326;42.650;23.248;2023-01-19T06:09:45;25.37;;;6.17;;
53040;SDS011;39326;42.650;23.248;2023-01-19T06:12:11;27.83;;;6.23;;
53040;SDS011;39326;42.650;23.248;2023-01-19T06:14:36;23.47;;;5.47;;
53040;SDS011;39326;42.650;23.248;2023-01-19T06:17:02;30.95;;;7.07;;
53040;SDS011;39326;42.650;23.248;2023-01-19T06:19:30;29.27;;;5.73;;
53040;SDS011;39326;42.650;23.248;2023-01-19T06:21:55;22.27;;;5.20;;
53040;SDS011;39326;42.650;23.248;2023-01-19T06:24:21;28.57;;;6.73;;
53040;SDS011;39326;42.650;23.248;2023-01-19T06:26:47;32.13;;;7.90;;
53040;SDS011;39326;42.650;23.248;2023-01-19T06:29:12;32.90;;;5.67;;
53040;SDS011;39326;42.650;23.248;2023-01-19T06:31:38;37.73;;;7.57;;
53040;SDS011;39326;42.650;23.248;2023-01-19T06:34:04;30.70;;;6.77;;
53040;SDS011;39326;42.650;23.248;2023-01-19T06:36:30;32.47;;;7.10;;
53040;SDS011;39326;42.650;23.248;2023-01-19T06:38:55;31.90;;;7.10;;
53040;SDS011;39326;42.650;23.248;2023-01-19T06:41:21;32.83;;;8.23;;
53040;SDS011;39326;42.650;23.248;2023-01-19T06:43:46;30.00;;;6.90;;
53040;SDS011;39326;42.650;23.248;2023-01-19T06:46:11;28.00;;;6.47;;
53040;SDS011;39326;42.650;23.248;2023-01-19T06:48:37;29.03;;;6.70;;
53040;SDS011;39326;42.650;23.248;2023-01-19T06:51:03;30.10;;;7.50;;
53040;SDS011;39326;42.650;23.248;2023-01-19T06:53:29;32.53;;;7.77;;
53040;SDS011;39326;42.650;23.248;2023-01-19T06:56:01;33.83;;;8.07;;
53040;SDS011;39326;42.650;23.248;2023-01-19T06:58:27;33.70;;;7.57;;
53040;SDS011;39326;42.650;23.248;2023-01-19T07:00:53;31.57;;;6.93;;
53040;SDS011;39326;42.650;23.248;2023-01-19T07:03:20;29.67;;;7.90;;
53040;SDS011;39326;42.650;23.248;2023-01-19T07:05:49;26.77;;;6.60;;
53040;SDS011;39326;42.650;23.248;2023-01-19T07:08:18;31.63;;;6.50;;
53040;SDS011;39326;42.650;23.248;2023-01-19T07:10:44;27.67;;;7.27;;
53040;SDS011;39326;42.650;23.248;2023-01-19T07:13:09;33.80;;;8.80;;
53040;SDS011;39326;42.650;23.248;2023-01-19T07:15:35;34.40;;;7.97;;
53040;SDS011;39326;42.650;23.248;2023-01-19T07:18:01;26.37;;;6.77;;
53040;SDS011;39326;42.650;23.248;2023-01-19T07:20:31;28.20;;;7.70;;
53040;SDS011;39326;42.650;23.248;2023-01-19T07:22:57;33.00;;;8.03;;
53040;SDS011;39326;42.650;23.248;2023-01-19T07:25:22;31.23;;;6.97;;
53040;SDS011;39326;42.650;23.248;2023-01-19T07:27:48;28.97;;;7.20;;
53040;SDS011;39326;42.650;23.248;2023-01-19T07:30:13;23.07;;;6.60;;
53040;SDS011;39326;42.650;23.248;2023-01-19T07:32:41;27.87;;;7.67;;
53040;SDS011;39326;42.650;23.248;2023-01-19T07:35:09;30.47;;;7.43;;
53040;SDS011;39326;42.650;23.248;2023-01-19T07:37:35;32.37;;;7.47;;
53040;SDS011;39326;42.650;23.248;2023-01-19T07:40:00;31.23;;;6.93;;
53040;SDS011;39326;42.650;23.248;2023-01-19T07:42:26;37.63;;;8.37;;
53040;SDS011;39326;42.650;23.248;2023-01-19T07:44:51;29.20;;;6.07;;
53040;SDS011;39326;42.650;23.248;2023-01-19T07:47:17;35.07;;;7.70;;
53040;SDS011;39326;42.650;23.248;2023-01-19T07:49:42;30.07;;;8.70;;
53040;SDS011;39326;42.650;23.248;2023-01-19T07:52:08;28.10;;;6.63;;
53040;SDS011;39326;42.650;23.248;2023-01-19T07:54:34;35.80;;;7.43;;
53040;SDS011;39326;42.650;23.248;2023-01-19T07:56:59;27.20;;;6.27;;
53040;SDS011;39326;42.650;23.248;2023-01-19T07:59:28;29.67;;;7.67;;
53040;SDS011;39326;42.650;23.248;2023-01-19T08:01:55;30.23;;;8.00;;
53040;SDS011;39326;42.650;23.248;2023-01-19T08:04:23;33.57;;;7.37;;
53040;SDS011;39326;42.650;23.248;2023-01-19T08:06:49;33.43;;;8.30;;
53040;SDS011;39326;42.650;23.248;2023-01-19T08:09:15;31.93;;;8.00;;
53040;SDS011;39326;42.650;23.248;2023-01-19T08:11:40;40.37;;;8.73;;
53040;SDS011;39326;42.650;23.248;2023-01-19T08:14:06;25.17;;;6.63;;
53040;SDS011;39326;42.650;23.248;2023-01-19T08:16:31;30.93;;;7.77;;
53040;SDS011;39326;42.650;23.248;2023-01-19T08:18:57;31.17;;;6.63;;
53040;SDS011;39326;42.650;23.248;2023-01-19T08:21:22;33.37;;;7.10;;
53040;SDS011;39326;42.650;23.248;2023-01-19T08:23:54;27.95;;;6.65;;
53040;SDS011;39326;42.650;23.248;2023-01-19T08:26:25;33.30;;;7.90;;
53040;SDS011;39326;42.650;23.248;2023-01-19T08:28:53;30.53;;;7.33;;
53040;SDS011;39326;42.650;23.248;2023-01-19T08:31:20;38.00;;;8.50;;
53040;SDS011;39326;42.650;23.248;2023-01-19T08:33:45;28.47;;;7.13;;
53040;SDS011;39326;42.650;23.248;2023-01-19T08:36:11;36.83;;;7.10;;
53040;SDS011;39326;42.650;23.248;2023-01-19T08:38:36;38.40;;;8.48;;
53040;SDS011;39326;42.650;23.248;2023-01-19T08:41:05;29.60;;;6.70;;
53040;SDS011;39326;42.650;23.248;2023-01-19T08:43:30;24.83;;;6.70;;
53040;SDS011;39326;42.650;23.248;2023-01-19T08:45:56;30.13;;;7.07;;
53040;SDS011;39326;42.650;23.248;2023-01-19T08:48:22;30.13;;;7.15;;
53040;SDS011;39326;42.650;23.248;2023-01-19T08:50:48;31.10;;;7.68;;
53040;SDS011;39326;42.650;23.248;2023-01-19T08:53:15;33.75;;;7.00;;
53040;SDS011;39326;42.650;23.248;2023-01-19T08:55:41;28.98;;;7.10;;
53040;SDS011;39326;42.650;23.248;2023-01-19T08:58:07;30.92;;;7.32;;
53040;SDS011;39326;42.650;23.248;2023-01-19T09:00:33;27.13;;;6.72;;
53040;SDS011;39326;42.650;23.248;2023-01-19T09:03:02;42.85;;;7.93;;
53040;SDS011;39326;42.650;23.248;2023-01-19T09:05:29;32.10;;;6.72;;
53040;SDS011;39326;42.650;23.248;2023-01-19T09:08:07;20.42;;;4.65;;
53040;SDS011;39326;42.650;23.248;2023-01-19T09:10:35;27.95;;;7.80;;
53040;SDS011;39326;42.650;23.248;2023-01-19T09:13:06;37.17;;;7.82;;
53040;SDS011;39326;42.650;23.248;2023-01-19T09:15:35;19.65;;;6.38;;
53040;SDS011;39326;42.650;23.248;2023-01-19T09:18:02;26.58;;;7.70;;
53040;SDS011;39326;42.650;23.248;2023-01-19T09:20:28;26.90;;;5.82;;
53040;SDS011;39326;42.650;23.248;2023-01-19T09:22:59;20.90;;;5.70;;
53040;SDS011;39326;42.650;23.248;2023-01-19T09:25:25;26.42;;;6.72;;
53040;SDS011;39326;42.650;23.248;2023-01-19T09:27:51;28.85;;;6.70;;
53040;SDS011;39326;42.650;23.248;2023-01-19T09:30:17;23.80;;;5.75;;
53040;SDS011;39326;42.650;23.248;2023-01-19T09:32:43;20.58;;;5.72;;
53040;SDS011;39326;42.650;23.248;2023-01-19T09:35:09;29.00;;;6.03;;
53040;SDS011;39326;42.650;23.248;2023-01-19T09:37:35;23.38;;;5.90;;
53040;SDS011;39326;42.650;23.248;2023-01-19T09:40:00;22.00;;;5.80;;
53040;SDS011;39326;42.650;23.248;2023-01-19T09:42:27;21.35;;;5.43;;
53040;SDS011;39326;42.650;23.248;2023-01-19T09:45:01;22.50;;;5.80;;
53040;SDS011;39326;42.650;23.248;2023-01-19T09:47:31;20.35;;;6.07;;
53040;SDS011;39326;42.650;23.248;2023-01-19T09:50:02;23.05;;;5.35;;
53040;SDS011;39326;42.650;23.248;2023-01-19T09:52:40;20.17;;;5.50;;
53040;SDS011;39326;42.650;23.248;2023-01-19T09:55:20;21.85;;;5.55;;
53040;SDS011;39326;42.650;23.248;2023-01-19T09:57:51;27.92;;;5.40;;
53040;SDS011;39326;42.650;23.248;2023-01-19T10:00:18;25.60;;;6.43;;
53040;SDS011;39326;42.650;23.248;2023-01-19T10:02:48;25.90;;;5.93;;
53040;SDS011;39326;42.650;23.248;2023-01-19T10:10:20;23.92;;;5.95;;
53040;SDS011;39326;42.650;23.248;2023-01-19T10:20:50;18.98;;;4.13;;
53040;SDS011;39326;42.650;23.248;2023-01-19T10:25:53;26.73;;;5.70;;
53040;SDS011;39326;42.650;23.248;2023-01-19T10:28:21;23.85;;;5.22;;
53040;SDS011;39326;42.650;23.248;2023-01-19T10:30:49;20.60;;;5.38;;
53040;SDS011;39326;42.650;23.248;2023-01-19T10:33:17;19.35;;;4.63;;
53040;SDS011;39326;42.650;23.248;2023-01-19T10:35:43;18.17;;;5.32;;
53040;SDS011;39326;42.650;23.248;2023-01-19T10:38:11;20.25;;;4.57;;
53040;SDS011;39326;42.650;23.248;2023-01-19T10:40:43;8.95;;;2.88;;
53040;SDS011;39326;42.650;23.248;2023-01-19T10:46:16;18.63;;;5.13;;
53040;SDS011;39326;42.650;23.248;2023-01-19T10:48:43;14.68;;;3.95;;
53040;SDS011;39326;42.650;23.248;2023-01-19T10:51:12;18.17;;;4.45;;
53040;SDS011;39326;42.650;23.248;2023-01-19T10:53:38;18.35;;;3.97;;
53040;SDS011;39326;42.650;23.248;2023-01-19T10:56:20;13.95;;;3.42;;
53040;SDS011;39326;42.650;23.248;2023-01-19T10:58:51;12.43;;;3.80;;
53040;SDS011;39326;42.650;23.248;2023-01-19T11:01:20;13.88;;;4.60;;
53040;SDS011;39326;42.650;23.248;2023-01-19T11:03:48;14.93;;;3.83;;
53040;SDS011;39326;42.650;23.248;2023-01-19T11:08:39;20.70;;;4.32;;
53040;SDS011;39326;42.650;23.248;2023-01-19T11:11:06;21.17;;;5.03;;
53040;SDS011;39326;42.650;23.248;2023-01-19T11:13:33;12.15;;;3.35;;
53040;SDS011;39326;42.650;23.248;2023-01-19T11:18:36;18.92;;;4.60;;
53040;SDS011;39326;42.650;23.248;2023-01-19T11:21:05;20.67;;;4.07;;
53040;SDS011;39326;42.650;23.248;2023-01-19T11:23:34;12.77;;;3.83;;
53040;SDS011;39326;42.650;23.248;2023-01-19T11:26:06;13.55;;;3.30;;
53040;SDS011;39326;42.650;23.248;2023-01-19T11:28:39;12.00;;;3.95;;
53040;SDS011;39326;42.650;23.248;2023-01-19T11:33:38;17.05;;;4.72;;
53040;SDS011;39326;42.650;23.248;2023-01-19T11:38:53;12.80;;;4.43;;
53040;SDS011;39326;42.650;23.248;2023-01-19T11:41:21;14.80;;;4.28;;
53040;SDS011;39326;42.650;23.248;2023-01-19T11:43:51;18.63;;;4.70;;
53040;SDS011;39326;42.650;23.248;2023-01-19T11:46:19;12.63;;;3.92;;
53040;SDS011;39326;42.650;23.248;2023-01-19T11:48:53;15.35;;;4.10;;
53040;SDS011;39326;42.650;23.248;2023-01-19T11:51:38;14.30;;;4.47;;
53040;SDS011;39326;42.650;23.248;2023-01-19T11:54:18;16.52;;;4.53;;
53040;SDS011;39326;42.650;23.248;2023-01-19T11:56:47;17.75;;;3.85;;
53040;SDS011;39326;42.650;23.248;2023-01-19T11:59:16;18.05;;;3.97;;
53040;SDS011;39326;42.650;23.248;2023-01-19T12:01:46;11.48;;;3.42;;
53040;SDS011;39326;42.650;23.248;2023-01-19T12:04:19;12.70;;;3.72;;
53040;SDS011;39326;42.650;23.248;2023-01-19T12:06:53;14.07;;;3.63;;
53040;SDS011;39326;42.650;23.248;2023-01-19T12:09:21;12.23;;;3.40;;
53040;SDS011;39326;42.650;23.248;2023-01-19T12:11:57;14.40;;;3.90;;
53040;SDS011;39326;42.650;23.248;2023-01-19T12:17:28;14.20;;;3.78;;
53040;SDS011;39326;42.650;23.248;2023-01-19T12:20:00;10.18;;;3.33;;
53040;SDS011;39326;42.650;23.248;2023-01-19T12:22:32;16.15;;;3.42;;
53040;SDS011;39326;42.650;23.248;2023-01-19T12:25:12;13.45;;;3.10;;
53040;SDS011;39326;42.650;23.248;2023-01-19T12:27:44;10.77;;;3.33;;
53040;SDS011;39326;42.650;23.248;2023-01-19T12:30:22;14.07;;;3.67;;
53040;SDS011;39326;42.650;23.248;2023-01-19T12:41:36;10.35;;;3.05;;
53040;SDS011;39326;42.650;23.248;2023-01-19T12:46:40;9.55;;;3.17;;
53040;SDS011;39326;42.650;23.248;2023-01-19T12:49:11;9.32;;;1.90;;
53040;SDS011;39326;42.650;23.248;2023-01-19T12:52:09;13.07;;;2.78;;
53040;SDS011;39326;42.650;23.248;2023-01-19T12:54:35;12.70;;;3.75;;
53040;SDS011;39326;42.650;23.248;2023-01-19T12:57:07;12.70;;;2.95;;
53040;SDS011;39326;42.650;23.248;2023-01-19T12:59:42;8.13;;;3.00;;
53040;SDS011;39326;42.650;23.248;2023-01-19T13:18:50;11.48;;;3.08;;
53040;SDS011;39326;42.650;23.248;2023-01-19T13:23:59;9.57;;;2.83;;
53040;SDS011;39326;42.650;23.248;2023-01-19T13:26:30;7.35;;;2.65;;
53040;SDS011;39326;42.650;23.248;2023-01-19T13:29:15;7.72;;;2.70;;
53040;SDS011;39326;42.650;23.248;2023-01-19T13:32:03;11.43;;;2.97;;
53040;SDS011;39326;42.650;23.248;2023-01-19T13:34:39;10.82;;;2.50;;
53040;SDS011;39326;42.650;23.248;2023-01-19T13:37:14;6.60;;;2.10;;
53040;SDS011;39326;42.650;23.248;2023-01-19T13:39:43;5.05;;;1.90;;
53040;SDS011;39326;42.650;23.248;2023-01-19T13:44:45;9.55;;;2.90;;
53040;SDS011;39326;42.650;23.248;2023-01-19T13:47:22;11.07;;;2.42;;
53040;SDS011;39326;42.650;23.248;2023-01-19T13:49:56;10.55;;;2.90;;
53040;SDS011;39326;42.650;23.248;2023-01-19T13:52:26;10.70;;;4.10;;
53040;SDS011;39326;42.650;23.248;2023-01-19T13:54:53;8.93;;;2.63;;
53040;SDS011;39326;42.650;23.248;2023-01-19T14:02:58;10.77;;;2.65;;
53040;SDS011;39326;42.650;23.248;2023-01-19T14:10:45;8.40;;;2.65;;
53040;SDS011;39326;42.650;23.248;2023-01-19T14:15:45;9.32;;;2.92;;
53040;SDS011;39326;42.650;23.248;2023-01-19T14:29:09;7.53;;;2.67;;
53040;SDS011;39326;42.650;23.248;2023-01-19T14:32:05;6.50;;;2.08;;
53040;SDS011;39326;42.650;23.248;2023-01-19T14:37:26;8.90;;;2.20;;
53040;SDS011;39326;42.650;23.248;2023-01-19T14:39:59;6.97;;;3.55;;
53040;SDS011;39326;42.650;23.248;2023-01-19T14:43:14;9.63;;;2.80;;
53040;SDS011;39326;42.650;23.248;2023-01-19T14:47:59;6.55;;;2.10;;
53040;SDS011;39326;42.650;23.248;2023-01-19T14:53:06;7.28;;;2.42;;
53040;SDS011;39326;42.650;23.248;2023-01-19T14:55:43;5.72;;;2.45;;
53040;SDS011;39326;42.650;23.248;2023-01-19T14:58:12;6.63;;;2.80;;
53040;SDS011;39326;42.650;23.248;2023-01-19T15:00:43;7.00;;;3.72;;
53040;SDS011;39326;42.650;23.248;2023-01-19T15:03:10;6.82;;;3.45;;
53040;SDS011;39326;42.650;23.248;2023-01-19T15:05:39;12.15;;;2.22;;
53040;SDS011;39326;42.650;23.248;2023-01-19T15:08:10;7.22;;;2.47;;
53040;SDS011;39326;42.650;23.248;2023-01-19T15:10:39;6.50;;;2.40;;
53040;SDS011;39326;42.650;23.248;2023-01-19T15:13:04;6.00;;;2.53;;
53040;SDS011;39326;42.650;23.248;2023-01-19T15:15:30;10.07;;;2.60;;
53040;SDS011;39326;42.650;23.248;2023-01-19T15:18:00;6.87;;;2.20;;
53040;SDS011;39326;42.650;23.248;2023-01-19T15:20:28;8.53;;;3.43;;
53040;SDS011;39326;42.650;23.248;2023-01-19T15:22:53;8.60;;;2.83;;
53040;SDS011;39326;42.650;23.248;2023-01-19T15:25:21;8.73;;;2.63;;
53040;SDS011;39326;42.650;23.248;2023-01-19T15:27:50;9.27;;;2.67;;
53040;SDS011;39326;42.650;23.248;2023-01-19T15:30:20;8.53;;;2.90;;
53040;SDS011;39326;42.650;23.248;2023-01-19T15:32:57;8.13;;;2.45;;
53040;SDS011;39326;42.650;23.248;2023-01-19T15:35:23;7.57;;;4.00;;
53040;SDS011;39326;42.650;23.248;2023-01-19T15:37:50;9.90;;;3.30;;
53040;SDS011;39326;42.650;23.248;2023-01-19T15:40:16;11.88;;;3.60;;
53040;SDS011;39326;42.650;23.248;2023-01-19T15:42:43;13.40;;;11.13;;
53040;SDS011;39326;42.650;23.248;2023-01-19T15:48:03;11.48;;;6.43;;
53040;SDS011;39326;42.650;23.248;2023-01-19T15:50:30;8.68;;;4.05;;
53040;SDS011;39326;42.650;23.248;2023-01-19T15:52:57;10.97;;;5.43;;
53040;SDS011;39326;42.650;23.248;2023-01-19T15:55:22;7.10;;;3.00;;
53040;SDS011;39326;42.650;23.248;2023-01-19T15:57:48;10.95;;;4.30;;
53040;SDS011;39326;42.650;23.248;2023-01-19T16:00:14;10.33;;;4.20;;
53040;SDS011;39326;42.650;23.248;2023-01-19T16:02:40;15.23;;;8.00;;
53040;SDS011;39326;42.650;23.248;2023-01-19T16:05:05;9.53;;;3.20;;
53040;SDS011;39326;42.650;23.248;2023-01-19T16:07:31;7.77;;;3.50;;
53040;SDS011;39326;42.650;23.248;2023-01-19T16:09:58;7.27;;;2.60;;
53040;SDS011;39326;42.650;23.248;2023-01-19T16:12:24;8.67;;;2.90;;
53040;SDS011;39326;42.650;23.248;2023-01-19T16:14:49;6.60;;;2.80;;
53040;SDS011;39326;42.650;23.248;2023-01-19T16:17:14;8.20;;;2.50;;
53040;SDS011;39326;42.650;23.248;2023-01-19T16:19:40;8.80;;;2.67;;
53040;SDS011;39326;42.650;23.248;2023-01-19T16:22:05;9.37;;;3.43;;
53040;SDS011;39326;42.650;23.248;2023-01-19T16:24:31;10.00;;;2.33;;
53040;SDS011;39326;42.650;23.248;2023-01-19T16:26:56;8.17;;;2.93;;
53040;SDS011;39326;42.650;23.248;2023-01-19T16:29:22;2.63;;;1.37;;
53040;SDS011;39326;42.650;23.248;2023-01-19T16:31:47;3.00;;;1.20;;
53040;SDS011;39326;42.650;23.248;2023-01-19T16:34:13;12.47;;;9.87;;
53040;SDS011;39326;42.650;23.248;2023-01-19T16:36:39;5.23;;;1.87;;
53040;SDS011;39326;42.650;23.248;2023-01-19T16:39:06;3.67;;;1.15;;
53040;SDS011;39326;42.650;23.248;2023-01-19T16:41:33;2.72;;;1.13;;